Lamb, Kentucky
Current Conditions -  °F | °C
As of 12:15 PM on Saturday 22 Nov 2014 (Local Time) from KGLW Reporting Station
Broken Clouds Broken Clouds  
Wind Chill: 59°   Ceiling: 11000
Heat Index: 59°   Visibility: 10mi
Dew Point: 32°   Wind: 12mph
Humidity: 36%   Direction: 180°S
Pressure: 30.24"   Gusts: NA
Location:  36.9602°N, 85.9175°W
Report Text: KGLW 221815Z AUTO 18010KT 10SM BKN110 15/00 A3024 RMK AO2 T01501001
Loading
Personal Weather Stations






























Interactive Weather Map New forecast layout! Learn more

10-Day Weather Forecast

Advertisements
Track Severe Weather on mobile